KDSM/DSM METAR and TAF weather

Enter ICAO airport designator
Station Type Date Time Source
KDSM METAR 2018/07/21 03:54 UTC NOAA

KDSM 210354Z 30004KT 10SM FEW045 22/17 A2991 RMK AO2 SLP122 T02220172


Station Type Date Time Source
KDSM Decoded METAR 2018/07/21 03:54 UTC NOAA

DES MOINES INTERNATIONAL, IA, United States (KDSM) 41-32N 93-40W 295M
Jul 20, 2018 - 11:54 PM EDT / 2018.07.21 0354 UTC
Wind: from the WNW (300 degrees) at 5 MPH (4 KT):0
Visibility: 10 mile(s):0
Sky conditions: mostly clear
Temperature: 72.0 F (22.2 C)
Dew Point: 63.0 F (17.2 C)
Relative Humidity: 73%
Pressure (altimeter): 29.91 in. Hg (1012 hPa)
ob: KDSM 210354Z 30004KT 10SM FEW045 22/17 A2991 RMK AO2 SLP122 T02220172
cycle: 4

Station Type Date Time Source
KDSM TAF 2018/07/20 18:40 UTC NOAA

TAF KDSM 201738Z 2018/2118 32015G24KT P6SM BKN026
FM202000 32014G19KT P6SM SCT090


Example: see airport list